createdAt,value
2023-03-29T00:01:52.421Z,11.75
2023-03-29T00:04:19.331Z,11.29
2023-03-29T00:06:46.750Z,11.48
2023-03-29T00:09:14.603Z,11.99
2023-03-29T00:11:42.248Z,12.09
2023-03-29T00:14:11.188Z,11.73
2023-03-29T00:16:38.016Z,11.34
2023-03-29T00:19:05.519Z,10.51
2023-03-29T00:21:32.193Z,10.18
2023-03-29T00:23:59.281Z,10.15
2023-03-29T00:26:25.878Z,10.02
2023-03-29T00:28:52.541Z,10.76
2023-03-29T00:31:19.245Z,10.38
2023-03-29T00:33:46.109Z,10.14
2023-03-29T00:36:13.269Z,10.42
2023-03-29T00:38:40.257Z,10.74
2023-03-29T00:41:09.096Z,11.07
2023-03-29T00:43:58.550Z,11.00
2023-03-29T00:46:27.324Z,10.18
2023-03-29T00:49:00.389Z,10.07
2023-03-29T00:51:32.631Z,10.26
2023-03-29T00:54:03.746Z,9.56
2023-03-29T00:56:38.650Z,9.81
2023-03-29T00:59:11.057Z,10.32
2023-03-29T01:01:50.943Z,10.26
2023-03-29T01:04:40.906Z,9.95
2023-03-29T01:07:11.947Z,10.51
2023-03-29T01:09:42.996Z,9.71
2023-03-29T01:12:22.213Z,9.95
2023-03-29T01:14:56.563Z,10.76
2023-03-29T01:17:23.521Z,9.89
2023-03-29T01:19:59.629Z,10.60
2023-03-29T01:23:06.396Z,11.27
2023-03-29T01:25:56.144Z,11.15
2023-03-29T01:28:40.778Z,10.27
2023-03-29T01:31:24.549Z,10.06
2023-03-29T01:34:01.212Z,10.01
2023-03-29T01:36:36.102Z,10.08
2023-03-29T01:39:06.601Z,10.59
2023-03-29T01:42:07.133Z,11.32
2023-03-29T01:44:55.295Z,10.92
2023-03-29T01:47:58.477Z,11.05
2023-03-29T01:50:58.272Z,11.43
2023-03-29T01:54:06.563Z,11.54
2023-03-29T01:56:40.140Z,10.59
2023-03-29T01:59:29.543Z,10.75
2023-03-29T02:02:02.488Z,10.20
2023-03-29T02:04:34.317Z,10.67
2023-03-29T02:07:04.826Z,10.36
2023-03-29T02:09:35.297Z,10.97
2023-03-29T02:12:08.874Z,10.83
2023-03-29T02:14:35.867Z,10.48
2023-03-29T02:17:16.677Z,10.16
2023-03-29T02:19:47.093Z,10.86
2023-03-29T02:22:19.080Z,10.93
2023-03-29T02:24:49.231Z,10.97
2023-03-29T02:27:15.948Z,10.39
2023-03-29T02:29:42.718Z,10.83
2023-03-29T02:32:20.266Z,11.47
2023-03-29T02:34:56.118Z,10.61
2023-03-29T02:37:27.718Z,9.99
2023-03-29T02:39:54.866Z,10.40
2023-03-29T02:42:24.548Z,10.85
2023-03-29T02:44:56.673Z,10.02
2023-03-29T02:47:33.072Z,9.97
2023-03-29T02:50:00.714Z,10.56
2023-03-29T02:52:34.824Z,10.76
2023-03-29T02:55:06.780Z,11.15
2023-03-29T02:57:33.401Z,11.15
2023-03-29T03:00:01.019Z,11.48
2023-03-29T03:02:28.008Z,11.82
2023-03-29T03:04:54.704Z,11.63
2023-03-29T03:07:21.477Z,11.90
2023-03-29T03:09:48.096Z,12.16
2023-03-29T03:12:15.030Z,10.95
2023-03-29T03:14:41.722Z,10.98
2023-03-29T03:17:08.514Z,11.52
2023-03-29T03:19:35.104Z,10.87
2023-03-29T03:22:01.860Z,10.49
2023-03-29T03:24:28.491Z,10.32
2023-03-29T03:26:55.087Z,10.93
2023-03-29T03:29:21.744Z,11.55
2023-03-29T03:31:48.456Z,11.95
2023-03-29T03:34:15.169Z,12.05
2023-03-29T03:36:41.910Z,11.63
2023-03-29T03:39:09.495Z,12.00
2023-03-29T03:41:36.137Z,11.55
2023-03-29T03:44:02.760Z,11.74
2023-03-29T03:46:29.736Z,10.73
2023-03-29T03:48:57.243Z,10.58
2023-03-29T03:51:23.962Z,10.35
2023-03-29T03:53:50.609Z,10.20
2023-03-29T03:56:17.202Z,10.63
2023-03-29T03:58:43.987Z,11.03
2023-03-29T04:01:10.601Z,11.36
2023-03-29T04:03:37.389Z,10.82
2023-03-29T04:06:04.641Z,10.65
2023-03-29T04:08:31.277Z,10.97
2023-03-29T04:10:59.820Z,11.29
2023-03-29T04:13:27.218Z,11.22
2023-03-29T04:15:55.076Z,10.83
2023-03-29T04:18:22.693Z,10.67
2023-03-29T04:20:50.185Z,10.54
2023-03-29T04:23:17.120Z,10.02
2023-03-29T04:25:43.999Z,10.12
2023-03-29T04:28:12.088Z,10.24
2023-03-29T04:30:39.090Z,10.61
2023-03-29T04:33:05.712Z,10.32
2023-03-29T04:35:32.509Z,10.72
2023-03-29T04:37:59.281Z,10.66
2023-03-29T04:40:25.933Z,10.83
2023-03-29T04:42:52.561Z,11.01
2023-03-29T04:45:19.254Z,10.93
2023-03-29T04:47:46.207Z,10.97
2023-03-29T04:50:13.568Z,11.28
2023-03-29T04:52:40.241Z,10.82
2023-03-29T04:55:07.266Z,11.21
2023-03-29T04:57:33.866Z,11.43
2023-03-29T05:00:00.621Z,11.29
2023-03-29T05:02:27.514Z,11.51
2023-03-29T05:04:54.162Z,11.14
2023-03-29T05:07:20.784Z,10.97
2023-03-29T05:09:47.482Z,10.15
2023-03-29T05:12:14.103Z,9.91
2023-03-29T05:14:40.728Z,9.93
2023-03-29T05:17:07.297Z,10.24
2023-03-29T05:19:33.951Z,10.08
2023-03-29T05:22:02.618Z,10.69
2023-03-29T05:24:29.217Z,10.55
2023-03-29T05:26:55.893Z,10.59
2023-03-29T05:29:22.516Z,10.74
2023-03-29T05:31:49.508Z,11.53
2023-03-29T05:34:16.136Z,11.21
2023-03-29T05:36:42.778Z,11.53
2023-03-29T05:39:09.463Z,11.65
2023-03-29T05:41:36.090Z,11.67
2023-03-29T05:44:02.803Z,11.80
2023-03-29T05:46:29.416Z,11.67
2023-03-29T05:48:56.028Z,11.24
2023-03-29T05:51:22.643Z,11.80
2023-03-29T05:53:49.357Z,11.37
2023-03-29T05:56:16.107Z,11.84
2023-03-29T05:58:43.035Z,11.98
2023-03-29T06:01:13.622Z,11.83
2023-03-29T06:03:41.132Z,11.85
2023-03-29T06:06:08.142Z,11.87
2023-03-29T06:08:34.786Z,12.22
2023-03-29T06:11:05.042Z,12.48
2023-03-29T06:13:33.188Z,12.59
2023-03-29T06:16:00.422Z,12.98
2023-03-29T06:18:27.512Z,13.03
2023-03-29T06:20:54.160Z,12.82
2023-03-29T06:23:22.397Z,13.10
2023-03-29T06:25:49.129Z,12.96
2023-03-29T06:28:15.763Z,12.60
2023-03-29T06:30:42.616Z,12.86
2023-03-29T06:33:09.805Z,13.05
2023-03-29T06:35:37.246Z,13.19
2023-03-29T06:38:04.691Z,13.30
2023-03-29T06:40:31.819Z,13.53
2023-03-29T06:42:58.660Z,13.48
2023-03-29T06:45:29.342Z,13.71
2023-03-29T06:47:56.341Z,13.85
2023-03-29T06:50:23.199Z,14.02
2023-03-29T06:52:50.201Z,13.75
2023-03-29T06:55:16.851Z,13.41
2023-03-29T06:57:43.641Z,13.19
2023-03-29T07:00:11.613Z,12.62
2023-03-29T07:02:38.665Z,13.39
2023-03-29T07:05:05.477Z,13.45
2023-03-29T07:07:32.172Z,12.81
2023-03-29T07:09:58.925Z,12.47
2023-03-29T07:12:25.547Z,12.58
2023-03-29T07:14:52.941Z,12.39
2023-03-29T07:17:19.593Z,13.21
2023-03-29T07:19:46.201Z,13.15
2023-03-29T07:22:12.838Z,13.12
2023-03-29T07:24:39.440Z,13.22
2023-03-29T07:27:06.113Z,12.86
2023-03-29T07:29:32.865Z,12.61
2023-03-29T07:31:59.531Z,13.00
2023-03-29T07:34:26.166Z,13.07
2023-03-29T07:36:53.009Z,13.61
2023-03-29T07:39:19.650Z,13.87
2023-03-29T07:41:48.202Z,13.35
2023-03-29T07:44:14.796Z,13.36
2023-03-29T07:46:43.880Z,13.65
2023-03-29T07:49:10.496Z,14.04
2023-03-29T07:51:37.141Z,14.68
2023-03-29T07:54:03.769Z,14.63
2023-03-29T07:56:30.524Z,13.99
2023-03-29T07:58:57.229Z,14.22
2023-03-29T08:01:24.269Z,14.97
2023-03-29T08:03:51.006Z,14.51
2023-03-29T08:06:18.792Z,14.50
2023-03-29T08:08:45.426Z,14.08
2023-03-29T08:11:12.046Z,14.47
2023-03-29T08:13:38.674Z,14.15
2023-03-29T08:16:05.742Z,14.57
2023-03-29T08:18:34.713Z,14.78
2023-03-29T08:21:02.068Z,14.60
2023-03-29T08:23:28.900Z,14.99
2023-03-29T08:25:55.492Z,15.16
2023-03-29T08:28:22.221Z,13.79
2023-03-29T08:30:49.016Z,13.56
2023-03-29T08:33:15.837Z,14.05
2023-03-29T08:35:42.651Z,14.56
2023-03-29T08:38:09.413Z,13.90
2023-03-29T08:40:36.694Z,14.54
2023-03-29T08:43:19.819Z,14.71
2023-03-29T08:45:50.888Z,14.94
2023-03-29T08:48:31.775Z,15.57
2023-03-29T08:51:09.364Z,15.52
2023-03-29T08:53:43.516Z,15.73
2023-03-29T08:56:26.389Z,15.65
2023-03-29T08:58:57.264Z,15.56
2023-03-29T09:01:27.522Z,15.79
2023-03-29T09:04:07.283Z,15.55
2023-03-29T09:06:34.293Z,15.77
2023-03-29T09:09:02.072Z,14.72
2023-03-29T09:11:45.794Z,14.94
2023-03-29T09:14:49.470Z,14.72
2023-03-29T09:17:16.025Z,15.43
2023-03-29T09:19:48.968Z,15.15
2023-03-29T09:23:00.125Z,15.21
2023-03-29T09:25:54.433Z,16.02
2023-03-29T09:28:51.637Z,15.91
2023-03-29T09:31:35.030Z,15.10
2023-03-29T09:34:15.332Z,14.40
2023-03-29T09:36:54.750Z,14.97
2023-03-29T09:39:22.572Z,15.05
2023-03-29T09:42:04.483Z,15.10
2023-03-29T09:44:38.614Z,14.21
2023-03-29T09:47:17.390Z,15.14
2023-03-29T09:49:49.304Z,15.59
2023-03-29T09:52:18.661Z,15.97
2023-03-29T09:54:45.379Z,15.31
2023-03-29T09:57:16.158Z,14.98
2023-03-29T09:59:43.834Z,14.43
2023-03-29T10:02:13.475Z,14.94
2023-03-29T10:04:41.564Z,15.26
2023-03-29T10:07:16.485Z,14.99
2023-03-29T10:09:46.200Z,15.19
2023-03-29T10:12:14.673Z,15.58
2023-03-29T10:14:45.429Z,14.95
2023-03-29T10:17:24.401Z,15.16
2023-03-29T10:19:56.344Z,15.55
2023-03-29T10:22:26.872Z,14.60
2023-03-29T10:24:56.696Z,14.25
2023-03-29T10:27:32.336Z,15.15
2023-03-29T10:30:07.935Z,15.79
2023-03-29T10:32:37.481Z,15.45
2023-03-29T10:35:07.274Z,15.81
2023-03-29T10:37:33.958Z,16.13
2023-03-29T10:40:00.660Z,15.48
2023-03-29T10:42:28.584Z,14.84
2023-03-29T10:44:59.679Z,14.61
2023-03-29T10:47:31.951Z,14.95
2023-03-29T10:49:58.576Z,15.20
2023-03-29T10:52:25.586Z,14.55
2023-03-29T10:54:56.001Z,14.13
2023-03-29T10:57:49.638Z,13.86
2023-03-29T11:00:28.339Z,13.51
2023-03-29T11:03:10.286Z,13.93
2023-03-29T11:06:06.641Z,12.83
2023-03-29T11:08:50.253Z,13.59
2023-03-29T11:11:41.054Z,13.37
2023-03-29T11:14:36.306Z,13.32
2023-03-29T11:17:46.468Z,14.34
2023-03-29T11:20:27.085Z,14.62
2023-03-29T11:23:32.105Z,14.39
2023-03-29T11:26:01.400Z,14.23
2023-03-29T11:28:42.147Z,14.65
2023-03-29T11:31:32.812Z,14.31
2023-03-29T11:34:14.671Z,15.03
2023-03-29T11:36:46.903Z,15.34
2023-03-29T11:39:41.196Z,14.81
2023-03-29T11:42:16.722Z,14.26
2023-03-29T11:44:47.780Z,13.66
2023-03-29T11:47:20.264Z,14.05
2023-03-29T11:50:15.126Z,15.00
2023-03-29T11:52:54.423Z,14.96
2023-03-29T11:55:29.001Z,15.53
2023-03-29T11:58:10.496Z,16.05
2023-03-29T12:00:48.752Z,15.73
2023-03-29T12:03:24.486Z,14.73
2023-03-29T12:06:15.637Z,15.32
2023-03-29T12:08:55.051Z,14.68
2023-03-29T12:11:24.220Z,14.82
2023-03-29T12:14:05.690Z,14.46
2023-03-29T12:16:47.959Z,14.97
2023-03-29T12:19:21.464Z,15.61
2023-03-29T12:21:49.535Z,14.70
2023-03-29T12:24:19.412Z,14.83
2023-03-29T12:27:04.726Z,15.03
2023-03-29T12:29:37.361Z,15.50
2023-03-29T12:32:32.018Z,15.74
2023-03-29T12:35:37.487Z,15.82
2023-03-29T12:38:18.403Z,16.48
2023-03-29T12:40:55.967Z,16.77
2023-03-29T12:43:32.980Z,17.33
2023-03-29T12:46:17.217Z,15.98
2023-03-29T12:48:48.643Z,16.34
2023-03-29T12:51:21.066Z,16.95
2023-03-29T12:53:56.646Z,17.05
2023-03-29T12:56:38.897Z,17.15
2023-03-29T12:59:24.078Z,16.77
2023-03-29T13:02:05.639Z,17.11
2023-03-29T13:04:50.936Z,17.49
2023-03-29T13:07:23.632Z,17.26
2023-03-29T13:09:51.613Z,17.46
2023-03-29T13:12:27.852Z,17.76
2023-03-29T13:14:59.477Z,18.44
2023-03-29T13:17:33.340Z,18.14
2023-03-29T13:20:21.594Z,18.12
2023-03-29T13:23:00.061Z,16.89
2023-03-29T13:25:39.226Z,17.68
2023-03-29T13:28:21.229Z,17.63
2023-03-29T13:31:25.060Z,17.17
2023-03-29T13:34:12.892Z,17.35
2023-03-29T13:37:11.309Z,17.09
2023-03-29T13:39:52.393Z,16.96
2023-03-29T13:42:25.276Z,16.87
2023-03-29T13:44:53.287Z,16.88
2023-03-29T13:47:25.784Z,17.71
2023-03-29T13:49:57.857Z,17.93
2023-03-29T13:52:30.606Z,18.01
2023-03-29T13:55:14.129Z,17.71
2023-03-29T13:57:48.240Z,17.90
2023-03-29T14:00:50.671Z,18.28
2023-03-29T14:03:22.345Z,18.57
2023-03-29T14:05:56.396Z,19.04
2023-03-29T14:08:30.211Z,18.58
2023-03-29T14:11:00.657Z,18.55
2023-03-29T14:13:29.399Z,18.77
2023-03-29T14:16:02.034Z,18.88
2023-03-29T14:18:36.910Z,19.10
2023-03-29T14:21:04.325Z,19.25
2023-03-29T14:23:34.164Z,19.58
2023-03-29T14:26:18.874Z,19.66
2023-03-29T14:28:45.431Z,19.58
2023-03-29T14:31:19.910Z,19.71
2023-03-29T14:33:52.664Z,19.31
2023-03-29T14:36:20.536Z,19.05
2023-03-29T14:38:53.154Z,19.02
2023-03-29T14:41:21.995Z,19.18
2023-03-29T14:43:51.185Z,19.26
2023-03-29T14:46:21.299Z,19.27
2023-03-29T14:48:48.481Z,19.13
2023-03-29T14:51:15.600Z,19.60
2023-03-29T14:53:43.334Z,19.48
2023-03-29T14:56:15.308Z,19.54
2023-03-29T14:58:45.869Z,19.68
2023-03-29T15:01:21.683Z,19.58
2023-03-29T15:03:57.492Z,18.99
2023-03-29T15:06:26.213Z,19.29
2023-03-29T15:09:04.289Z,19.51
2023-03-29T15:11:33.429Z,19.31
2023-03-29T15:14:12.531Z,19.50
2023-03-29T15:16:43.926Z,19.47
2023-03-29T15:19:19.400Z,19.63
2023-03-29T15:21:49.470Z,19.90
2023-03-29T15:24:23.843Z,19.90
2023-03-29T15:27:10.950Z,19.80
2023-03-29T15:29:41.388Z,19.91
2023-03-29T15:32:09.693Z,19.95
2023-03-29T15:34:36.417Z,19.88
2023-03-29T15:37:03.142Z,19.72
2023-03-29T15:39:30.317Z,20.05
2023-03-29T15:41:59.302Z,20.17
2023-03-29T15:44:33.201Z,19.71
2023-03-29T15:47:01.809Z,19.75
2023-03-29T15:49:29.292Z,19.88
2023-03-29T15:51:55.938Z,19.79
2023-03-29T15:54:23.655Z,20.02
2023-03-29T15:57:01.356Z,20.12
2023-03-29T15:59:28.128Z,19.76
2023-03-29T16:01:54.944Z,19.58
2023-03-29T16:04:22.560Z,19.87
2023-03-29T16:06:51.804Z,20.05
2023-03-29T16:09:19.125Z,20.20
2023-03-29T16:11:47.179Z,20.21
2023-03-29T16:14:22.792Z,20.13
2023-03-29T16:17:09.793Z,20.11
2023-03-29T16:19:36.449Z,19.67
2023-03-29T16:22:04.538Z,19.35
2023-03-29T16:24:32.665Z,19.59
2023-03-29T16:27:03.844Z,19.84
2023-03-29T16:29:31.136Z,19.23
2023-03-29T16:31:58.525Z,19.08
2023-03-29T16:34:25.266Z,19.03
2023-03-29T16:36:52.778Z,18.68
2023-03-29T16:39:19.429Z,19.34
2023-03-29T16:41:46.236Z,18.51
2023-03-29T16:44:17.349Z,18.38
2023-03-29T16:46:44.872Z,18.55
2023-03-29T16:49:14.016Z,18.25
2023-03-29T16:51:40.684Z,18.38
2023-03-29T16:54:07.306Z,18.43
2023-03-29T16:56:33.911Z,18.41
2023-03-29T16:59:00.558Z,18.27
2023-03-29T17:01:27.186Z,18.21
2023-03-29T17:03:53.866Z,18.33
2023-03-29T17:06:20.664Z,17.88
2023-03-29T17:08:47.346Z,18.23
2023-03-29T17:11:14.084Z,18.46
2023-03-29T17:13:40.753Z,17.39
2023-03-29T17:16:07.833Z,17.62
2023-03-29T17:18:34.551Z,18.15
2023-03-29T17:21:01.163Z,18.58
2023-03-29T17:23:27.873Z,18.66
2023-03-29T17:25:55.290Z,17.94
2023-03-29T17:28:22.621Z,17.47
2023-03-29T17:30:49.384Z,16.68
2023-03-29T17:33:18.183Z,16.50
2023-03-29T17:35:45.959Z,16.61
2023-03-29T17:38:12.646Z,17.39
2023-03-29T17:40:39.272Z,17.63
2023-03-29T17:43:05.938Z,17.69
2023-03-29T17:45:32.573Z,17.76
2023-03-29T17:47:59.316Z,17.52
2023-03-29T17:50:25.971Z,17.21
2023-03-29T17:52:52.557Z,17.78
2023-03-29T17:55:19.373Z,17.95
2023-03-29T17:57:47.828Z,17.83
2023-03-29T18:00:15.568Z,17.58
2023-03-29T18:02:50.827Z,17.50
2023-03-29T18:05:17.495Z,17.20
2023-03-29T18:07:44.117Z,17.20
2023-03-29T18:10:10.976Z,17.58
2023-03-29T18:12:37.616Z,17.84
2023-03-29T18:15:04.794Z,17.79
2023-03-29T18:17:31.724Z,17.56
2023-03-29T18:19:58.339Z,17.60
2023-03-29T18:22:24.933Z,17.52
2023-03-29T18:24:51.702Z,17.65
2023-03-29T18:27:18.884Z,17.47
2023-03-29T18:29:45.578Z,17.61
2023-03-29T18:32:13.557Z,17.61
2023-03-29T18:34:40.364Z,17.02
2023-03-29T18:37:07.098Z,16.83
2023-03-29T18:39:33.940Z,16.53
2023-03-29T18:42:00.574Z,16.24
2023-03-29T18:44:28.801Z,16.31
2023-03-29T18:46:55.643Z,16.95
2023-03-29T18:49:22.292Z,17.32
2023-03-29T18:51:48.931Z,17.13
2023-03-29T18:54:15.545Z,17.45
2023-03-29T18:56:42.156Z,17.61
2023-03-29T18:59:09.106Z,17.35
2023-03-29T19:01:39.226Z,17.72
2023-03-29T19:04:05.986Z,17.42
2023-03-29T19:06:35.162Z,17.24
2023-03-29T19:09:02.322Z,17.62
2023-03-29T19:11:29.212Z,16.60
2023-03-29T19:13:55.954Z,17.20
2023-03-29T19:16:22.764Z,17.00
2023-03-29T19:18:49.564Z,16.97
2023-03-29T19:21:16.220Z,17.04
2023-03-29T19:23:42.906Z,16.99
2023-03-29T19:26:10.184Z,16.67
2023-03-29T19:28:37.072Z,16.75
2023-03-29T19:31:04.374Z,16.55
2023-03-29T19:33:31.619Z,16.93
2023-03-29T19:35:58.379Z,16.46
2023-03-29T19:38:24.993Z,15.61
2023-03-29T19:40:52.058Z,15.78
2023-03-29T19:43:19.654Z,16.05
2023-03-29T19:45:51.012Z,15.66
2023-03-29T19:48:23.171Z,15.91
2023-03-29T19:50:50.696Z,16.08
2023-03-29T19:53:17.462Z,16.12
2023-03-29T19:55:44.329Z,16.74
2023-03-29T19:58:11.059Z,16.52
2023-03-29T20:00:37.813Z,17.03
2023-03-29T20:03:04.818Z,16.59
2023-03-29T20:05:31.562Z,16.77
2023-03-29T20:07:58.206Z,16.49
2023-03-29T20:10:24.995Z,15.93
2023-03-29T20:12:51.740Z,15.63
2023-03-29T20:15:18.832Z,16.51
2023-03-29T20:17:45.557Z,17.03
2023-03-29T20:20:12.517Z,16.85
2023-03-29T20:22:39.722Z,16.67
2023-03-29T20:25:06.529Z,16.91
2023-03-29T20:27:33.171Z,16.94
2023-03-29T20:29:59.797Z,16.35
2023-03-29T20:32:26.472Z,16.45
2023-03-29T20:34:53.138Z,16.38
2023-03-29T20:37:19.918Z,16.50
2023-03-29T20:39:46.528Z,16.50
2023-03-29T20:42:13.121Z,16.30
2023-03-29T20:44:39.780Z,16.89
2023-03-29T20:47:06.406Z,16.37
2023-03-29T20:49:35.420Z,16.60
2023-03-29T20:52:02.141Z,17.03
2023-03-29T20:54:28.820Z,17.23
2023-03-29T20:56:55.461Z,17.54
2023-03-29T20:59:22.133Z,17.29
2023-03-29T21:01:48.806Z,17.61
2023-03-29T21:04:16.235Z,17.56
2023-03-29T21:06:42.856Z,16.84
2023-03-29T21:09:09.532Z,17.28
2023-03-29T21:11:36.471Z,17.30
2023-03-29T21:14:03.163Z,16.70
2023-03-29T21:16:29.888Z,16.58
2023-03-29T21:18:56.554Z,16.58
2023-03-29T21:21:23.160Z,16.42
2023-03-29T21:23:49.792Z,16.40
2023-03-29T21:26:16.403Z,16.13
2023-03-29T21:28:43.176Z,16.43
2023-03-29T21:31:09.931Z,16.35
2023-03-29T21:33:36.645Z,16.21
2023-03-29T21:36:03.393Z,16.11
2023-03-29T21:38:30.119Z,16.13
2023-03-29T21:40:56.713Z,16.25
2023-03-29T21:43:23.499Z,16.72
2023-03-29T21:45:50.622Z,17.03
2023-03-29T21:48:18.241Z,16.94
2023-03-29T21:50:49.269Z,16.58
2023-03-29T21:53:15.912Z,16.80
2023-03-29T21:55:42.526Z,16.97
2023-03-29T21:58:09.238Z,17.11
2023-03-29T22:00:35.868Z,17.51
2023-03-29T22:03:02.658Z,17.29
2023-03-29T22:05:29.277Z,17.25
2023-03-29T22:07:55.891Z,16.60
2023-03-29T22:10:22.510Z,16.85
2023-03-29T22:12:50.280Z,16.43
2023-03-29T22:15:18.698Z,16.41
2023-03-29T22:17:45.287Z,16.83
2023-03-29T22:20:12.517Z,17.27
2023-03-29T22:22:43.021Z,17.14
2023-03-29T22:25:10.355Z,16.78
2023-03-29T22:27:37.697Z,17.03
2023-03-29T22:30:05.877Z,16.88
2023-03-29T22:32:32.783Z,17.04
2023-03-29T22:34:59.388Z,16.50
2023-03-29T22:37:26.037Z,16.08
2023-03-29T22:39:53.751Z,15.83
2023-03-29T22:42:20.340Z,15.79
2023-03-29T22:44:46.963Z,15.85
2023-03-29T22:47:13.656Z,16.09
2023-03-29T22:49:40.266Z,16.60
2023-03-29T22:52:06.963Z,16.61
2023-03-29T22:54:33.660Z,16.65
2023-03-29T22:57:00.349Z,16.83
2023-03-29T22:59:27.026Z,17.12
2023-03-29T23:01:54.268Z,17.14
2023-03-29T23:04:23.272Z,17.37
2023-03-29T23:06:49.969Z,17.45
2023-03-29T23:09:16.741Z,17.25
2023-03-29T23:11:43.385Z,16.94
2023-03-29T23:14:10.108Z,16.97
2023-03-29T23:16:36.720Z,16.63
2023-03-29T23:19:03.762Z,16.50
2023-03-29T23:21:32.668Z,16.41
2023-03-29T23:23:59.460Z,15.91
2023-03-29T23:26:26.200Z,15.93
2023-03-29T23:28:52.904Z,15.99
2023-03-29T23:31:19.973Z,16.08
2023-03-29T23:33:49.529Z,16.00
2023-03-29T23:36:18.273Z,16.42
2023-03-29T23:38:46.645Z,15.98
2023-03-29T23:41:13.352Z,15.83
2023-03-29T23:43:42.588Z,16.16
2023-03-29T23:46:17.614Z,15.72
2023-03-29T23:48:48.909Z,16.10
2023-03-29T23:51:16.974Z,16.32
2023-03-29T23:53:43.561Z,16.48
2023-03-29T23:56:10.317Z,16.12
2023-03-29T23:58:37.836Z,15.92
